Dallas, Texas
Traffic Map
Current Weather Conditions
Dallas, Texas
Broken Clouds
Broken Clouds
86°
Feels Like: 91°
Wind Chill: 86° Ceiling: 25000
Heat Index: 91° Visibility: 10mi
Dew Point: 70° Wind: 13mph
Humidity: 59% Direction: 190° (S)
Pressure: 29.97in Gusts: 0mph
Raw Report DataKDAL 050353Z 19011KT 10SM FEW180 BKN250 30/21 A2997 RMK AO2 SLP139 T03000211
Traffic Incident Summary
Active as of:
Severity:
Category:
InformationThere was an issue retrieving the traffic information for this location. Please try a different location or try again shortly.
Advertisements
Track Severe Weather on mobile